DAUZ

In Aménas Airport

Aménas, Algeria
METAR DAUZ 181500Z 26020KT 2500 DRSA NSC 33/M03 Q1007
Observed Flight Rules
Oct-18 @ 15:00 UTC (57 minutes ago) Instrument Flight Rules
Wind Visibility Clouds Conditions
260° at 20 knots 2,494 meters
  • Clear skies
  • Low drifting
  • Sand
Temperatures Readings
Current 33°C / 91°F
Dewpoint -3°C / 27°F
Humidity 10%
Altimeter 29.73" Hg
Pressure 1007 hPa
Elevation 562
METAR DAUZ 181500Z 26020KT 2500 DRSA NSC 33/M03 Q1007
Observed Flight Rules
Oct-18 @ 15:00 UTC
(57 minutes ago)
IFR
Wind Visibility
260° at 20 knots 2,494 meters
Clouds
  • Clear skies
Conditions
  • Low drifting
  • Sand
Temperature Dewpoint
33°C / 91°F -3°C / 27°F
Humidity Altimeter Pressure
10% 29.73" Hg 1007 hPa